Time;durP1;ratioP1;P1;durP2;ratioP2;P2;SDS_P1;SDS_P2;PMS_P1;PMS_P2;Temp;Humidity;BMP_temperature;BMP_pressure;BME280_temperature;BME280_humidity;BME280_pressure;Samples;Min_cycle;Max_cycle;Signal;HPM_P1;HPM_P2
2023/05/15 03:18:09;;;;;;;2.30;0.10;;;12.30;99.90;;;;;;6213417;22;89096;-70
2023/05/15 03:20:36;;;;;;;1.60;0.10;;;12.40;99.90;;;;;;6251333;22;87302;-69
2023/05/15 03:23:02;;;;;;;0.57;0.10;;;12.40;99.90;;;;;;6250133;22;87065;-70
2023/05/15 03:25:27;;;;;;;1.25;0.10;;;12.40;99.80;;;;;;6247755;22;89110;-71
2023/05/15 03:27:53;;;;;;;1.05;0.10;;;12.30;99.90;;;;;;6247167;22;88275;-71
2023/05/15 03:30:19;;;;;;;0.70;0.13;;;12.30;99.90;;;;;;6250026;22;87204;-71
2023/05/15 03:32:44;;;;;;;1.45;0.17;;;12.30;99.90;;;;;;6249332;22;87380;-71
2023/05/15 03:35:10;;;;;;;1.70;0.20;;;12.20;99.90;;;;;;6249043;22;88552;-71
2023/05/15 03:37:36;;;;;;;3.67;0.10;;;12.10;99.90;;;;;;6247187;22;87315;-72
2023/05/15 03:40:01;;;;;;;1.38;0.20;;;12.10;99.90;;;;;;6248246;22;87714;-73
2023/05/15 03:42:28;;;;;;;1.75;0.20;;;12.20;99.90;;;;;;6249636;22;86747;-72
2023/05/15 03:44:55;;;;;;;7.57;0.20;;;12.10;99.90;;;;;;6248701;22;88204;-71
2023/05/15 03:47:20;;;;;;;1.50;0.20;;;12.10;99.90;;;;;;6250286;22;88258;-70
2023/05/15 03:49:46;;;;;;;0.50;0.10;;;12.10;99.90;;;;;;6249196;22;88447;-72
2023/05/15 03:52:12;;;;;;;0.82;0.17;;;12.10;99.90;;;;;;6250414;22;87515;-71
2023/05/15 03:54:38;;;;;;;0.57;0.10;;;12.20;99.90;;;;;;6249853;22;87695;-72
2023/05/15 03:57:04;;;;;;;1.88;0.10;;;12.20;99.90;;;;;;6249933;22;88256;-70
2023/05/15 03:59:30;;;;;;;1.63;0.20;;;12.20;99.90;;;;;;6246403;22;87373;-72
2023/05/15 04:01:56;;;;;;;2.30;0.10;;;12.20;99.90;;;;;;6248527;22;87313;-73
2023/05/15 04:04:21;;;;;;;3.08;0.20;;;12.20;99.90;;;;;;6248714;22;88189;-72
2023/05/15 04:06:47;;;;;;;1.88;0.10;;;12.20;99.90;;;;;;6249947;22;87405;-73
2023/05/15 04:09:13;;;;;;;0.63;0.20;;;12.30;99.90;;;;;;6248973;22;87336;-72
2023/05/15 04:11:38;;;;;;;2.63;0.10;;;12.20;99.90;;;;;;6250123;22;87249;-72
2023/05/15 04:14:04;;;;;;;0.47;0.10;;;12.20;99.90;;;;;;6248838;22;89095;-73
2023/05/15 04:16:30;;;;;;;0.88;0.17;;;12.20;99.90;;;;;;6248266;22;89132;-72
2023/05/15 04:18:55;;;;;;;2.90;0.20;;;12.20;99.90;;;;;;6242760;22;87188;-71
2023/05/15 04:21:21;;;;;;;0.80;0.20;;;12.20;99.90;;;;;;6248677;22;87183;-68
2023/05/15 04:23:47;;;;;;;0.70;0.10;;;12.20;99.90;;;;;;6249607;22;87678;-72
2023/05/15 04:26:12;;;;;;;1.10;0.10;;;12.30;99.90;;;;;;6245481;22;87793;-71
2023/05/15 04:28:38;;;;;;;2.25;0.10;;;12.30;99.90;;;;;;6221454;22;87301;-70
2023/05/15 04:31:04;;;;;;;2.05;0.10;;;12.40;99.90;;;;;;6248767;22;86711;-71
2023/05/15 04:33:29;;;;;;;1.52;0.15;;;12.50;99.90;;;;;;6249634;22;88563;-71
2023/05/15 04:35:55;;;;;;;2.58;0.22;;;12.50;99.80;;;;;;6249469;22;87729;-71
2023/05/15 04:38:21;;;;;;;0.60;0.10;;;12.50;99.60;;;;;;6247204;22;89181;-71
2023/05/15 04:40:46;;;;;;;1.80;0.10;;;12.60;99.40;;;;;;6250548;22;87156;-72
2023/05/15 04:43:12;;;;;;;0.60;0.10;;;12.60;98.30;;;;;;6248086;22;88134;-72
2023/05/15 04:45:38;;;;;;;1.45;0.10;;;12.60;98.50;;;;;;6250055;22;88238;-73
2023/05/15 04:48:03;;;;;;;2.05;0.10;;;12.70;97.60;;;;;;6248688;22;87320;-73
2023/05/15 04:50:29;;;;;;;1.05;0.10;;;12.70;97.00;;;;;;6248596;22;87479;-72
2023/05/15 04:52:55;;;;;;;0.50;0.10;;;12.80;96.80;;;;;;6248794;22;88734;-72
2023/05/15 04:55:20;;;;;;;1.42;0.10;;;12.80;97.40;;;;;;6248317;22;87688;-72
2023/05/15 04:57:46;;;;;;;0.55;0.10;;;12.80;96.60;;;;;;6249034;22;87550;-74
2023/05/15 05:00:13;;;;;;;1.90;0.10;;;12.80;96.80;;;;;;6249968;22;87650;-73
2023/05/15 05:02:39;;;;;;;0.80;0.10;;;12.90;97.10;;;;;;6247657;22;91888;-71
2023/05/15 05:05:06;;;;;;;1.85;0.00;;;12.90;96.70;;;;;;6248952;22;89111;-71
2023/05/15 05:07:33;;;;;;;0.40;0.10;;;12.90;97.20;;;;;;6249284;22;87266;-71
2023/05/15 05:09:58;;;;;;;0.80;0.10;;;12.90;97.00;;;;;;6248282;22;87384;-72
2023/05/15 05:12:24;;;;;;;0.68;0.10;;;13.00;97.00;;;;;;6248838;22;88230;-72
2023/05/15 05:14:50;;;;;;;0.38;0.03;;;13.10;97.00;;;;;;6248984;22;87863;-73
2023/05/15 05:17:16;;;;;;;0.50;0.10;;;13.20;96.50;;;;;;6248723;22;87314;-71
2023/05/15 05:19:41;;;;;;;1.10;0.15;;;13.30;96.50;;;;;;6250600;22;86936;-73
2023/05/15 05:22:07;;;;;;;0.50;0.10;;;13.50;96.00;;;;;;6249121;22;88142;-71
2023/05/15 05:24:36;;;;;;;0.50;0.10;;;13.60;95.60;;;;;;6249642;22;88371;-72
2023/05/15 05:27:03;;;;;;;2.38;0.10;;;13.70;95.50;;;;;;6248980;22;88655;-72
2023/05/15 05:29:29;;;;;;;2.70;0.20;;;13.80;95.20;;;;;;6249289;22;87505;-72
2023/05/15 05:31:55;;;;;;;0.60;0.10;;;13.90;95.30;;;;;;6248656;22;87020;-72
2023/05/15 05:34:21;;;;;;;0.52;0.10;;;13.90;95.30;;;;;;6249598;22;87871;-70
2023/05/15 05:36:47;;;;;;;0.55;0.10;;;14.00;94.90;;;;;;6248994;22;87401;-73
2023/05/15 05:39:15;;;;;;;0.50;0.10;;;14.10;93.40;;;;;;6250237;22;87569;-72
2023/05/15 05:41:41;;;;;;;0.80;0.10;;;14.10;93.20;;;;;;6247993;22;87085;-72
2023/05/15 05:44:06;;;;;;;2.10;0.10;;;14.10;92.40;;;;;;6249602;22;87730;-74
2023/05/15 05:46:32;;;;;;;1.95;0.10;;;14.00;92.70;;;;;;6222319;22;87346;-71
2023/05/15 05:48:58;;;;;;;2.78;0.10;;;14.00;92.60;;;;;;6249883;22;86883;-71
2023/05/15 05:51:23;;;;;;;1.88;0.10;;;14.00;92.00;;;;;;6249194;22;89090;-69
2023/05/15 05:53:49;;;;;;;0.35;0.03;;;14.10;92.10;;;;;;6249246;22;88586;-71
2023/05/15 05:56:15;;;;;;;1.70;0.15;;;14.00;91.90;;;;;;6249819;22;87379;-71
2023/05/15 05:58:41;;;;;;;0.60;0.10;;;14.10;91.90;;;;;;6249986;22;87417;-70
2023/05/15 06:01:07;;;;;;;1.08;0.43;;;14.10;91.70;;;;;;6249800;22;87773;-71
2023/05/15 06:03:33;;;;;;;0.70;0.10;;;14.20;93.20;;;;;;6249907;22;87958;-71
2023/05/15 06:05:59;;;;;;;0.80;0.10;;;14.30;92.30;;;;;;6249856;22;87855;-70
2023/05/15 06:08:25;;;;;;;1.13;0.10;;;14.40;92.30;;;;;;6250445;22;86496;-70
2023/05/15 06:10:51;;;;;;;0.93;0.10;;;14.40;92.30;;;;;;6249852;22;87073;-70
2023/05/15 06:13:17;;;;;;;2.38;0.30;;;14.50;92.60;;;;;;6249527;22;87782;-71
2023/05/15 06:15:44;;;;;;;0.70;0.22;;;14.50;92.90;;;;;;6249418;22;88307;-70
2023/05/15 06:18:10;;;;;;;1.95;0.20;;;14.50;93.40;;;;;;6249821;22;87227;-71
2023/05/15 06:20:35;;;;;;;1.95;0.40;;;14.50;93.40;;;;;;6249544;22;88559;-71
2023/05/15 06:23:01;;;;;;;1.38;0.30;;;14.40;93.60;;;;;;6250379;22;87603;-72
2023/05/15 06:25:27;;;;;;;1.75;0.40;;;14.40;94.00;;;;;;6250234;22;87430;-71
2023/05/15 06:27:52;;;;;;;1.10;0.40;;;14.50;93.90;;;;;;6250026;22;87325;-72
2023/05/15 06:30:18;;;;;;;4.38;0.38;;;14.50;93.90;;;;;;6248472;22;88475;-72
2023/05/15 06:32:44;;;;;;;2.63;0.50;;;14.60;94.30;;;;;;6249992;22;87400;-71
2023/05/15 06:35:10;;;;;;;1.73;0.28;;;14.80;93.70;;;;;;6249641;22;87420;-72
2023/05/15 06:37:36;;;;;;;3.03;0.30;;;14.90;93.60;;;;;;6249914;22;87387;-72
2023/05/15 06:40:03;;;;;;;3.25;0.52;;;15.00;93.50;;;;;;6221083;22;89640;-73
2023/05/15 06:42:29;;;;;;;1.25;0.35;;;15.00;93.60;;;;;;6249369;22;88902;-72
2023/05/15 06:44:55;;;;;;;3.35;0.32;;;15.00;93.50;;;;;;6249324;22;86902;-72
2023/05/15 06:47:21;;;;;;;1.20;0.30;;;15.00;93.80;;;;;;6249493;22;87478;-71
2023/05/15 06:49:47;;;;;;;1.30;0.50;;;15.00;93.60;;;;;;6248893;22;88434;-71
2023/05/15 06:52:13;;;;;;;1.70;0.50;;;15.00;93.50;;;;;;6221813;22;88337;-73
2023/05/15 06:54:42;;;;;;;2.22;0.70;;;15.00;93.20;;;;;;6249203;22;86899;-71
2023/05/15 06:57:07;;;;;;;5.28;0.50;;;15.00;92.60;;;;;;6249876;22;87466;-71
2023/05/15 06:59:34;;;;;;;2.30;0.52;;;15.00;92.80;;;;;;6247836;22;87386;-71
2023/05/15 07:02:01;;;;;;;3.38;0.52;;;15.00;93.20;;;;;;6249116;22;87606;-72
2023/05/15 07:04:27;;;;;;;1.10;0.22;;;15.00;93.70;;;;;;6248513;22;88549;-71
2023/05/15 07:06:53;;;;;;;1.50;0.28;;;15.00;93.10;;;;;;6249503;22;87230;-71
2023/05/15 07:09:18;;;;;;;1.10;0.30;;;14.90;93.10;;;;;;6248676;22;88385;-72
2023/05/15 07:11:44;;;;;;;0.98;0.35;;;14.90;92.30;;;;;;6248679;22;88172;-71
2023/05/15 07:14:10;;;;;;;1.25;0.50;;;14.80;92.40;;;;;;6249101;22;89310;-71
2023/05/15 07:16:35;;;;;;;1.25;0.20;;;14.80;92.60;;;;;;6248830;22;87233;-71
2023/05/15 07:19:01;;;;;;;3.58;2.00;;;14.80;92.80;;;;;;6248722;22;87887;-71
2023/05/15 07:21:27;;;;;;;3.75;1.13;;;14.90;93.40;;;;;;6249025;22;88226;-71
2023/05/15 07:23:52;;;;;;;1.08;0.30;;;14.90;92.40;;;;;;6249392;22;87256;-71
2023/05/15 07:26:18;;;;;;;0.98;0.30;;;15.00;92.00;;;;;;6248611;22;87516;-74
2023/05/15 07:28:44;;;;;;;1.42;0.20;;;15.00;91.70;;;;;;6248064;22;89154;-71
2023/05/15 07:31:09;;;;;;;3.53;0.25;;;15.10;91.70;;;;;;6249000;22;89203;-71
2023/05/15 07:33:35;;;;;;;2.13;0.73;;;15.00;90.80;;;;;;6249045;22;87412;-73
2023/05/15 07:36:01;;;;;;;4.78;2.20;;;14.90;91.80;;;;;;6248819;22;87740;-71
2023/05/15 07:38:26;;;;;;;1.98;0.65;;;14.80;92.40;;;;;;6248317;22;87844;-71
2023/05/15 07:40:52;;;;;;;1.10;0.20;;;14.70;91.80;;;;;;6248691;22;88279;-72
2023/05/15 07:43:18;;;;;;;1.45;0.22;;;14.70;91.40;;;;;;6249029;22;87768;-72
2023/05/15 07:45:44;;;;;;;3.65;0.70;;;14.60;91.40;;;;;;6250802;22;86588;-71
2023/05/15 07:48:17;;;;;;;2.65;0.20;;;14.60;91.10;;;;;;6247538;22;88026;-73
2023/05/15 07:50:45;;;;;;;1.10;0.20;;;14.60;91.50;;;;;;6247720;22;88155;-70
2023/05/15 07:53:17;;;;;;;2.22;0.10;;;14.60;91.60;;;;;;6248481;22;88429;-71
2023/05/15 07:55:43;;;;;;;4.10;0.32;;;14.70;91.80;;;;;;6249831;22;87578;-70
2023/05/15 07:58:09;;;;;;;3.65;0.13;;;14.90;91.60;;;;;;6249291;22;87885;-72
2023/05/15 08:00:35;;;;;;;2.92;0.25;;;15.00;90.70;;;;;;6249368;22;87936;-71
2023/05/15 08:03:01;;;;;;;1.63;0.52;;;14.90;90.50;;;;;;6250286;22;89120;-71
2023/05/15 08:05:28;;;;;;;1.60;0.10;;;14.90;90.10;;;;;;6251007;22;87373;-70
2023/05/15 08:07:55;;;;;;;2.13;0.20;;;14.80;90.60;;;;;;6249578;22;88003;-70
2023/05/15 08:10:20;;;;;;;3.13;0.20;;;14.80;90.80;;;;;;6249377;22;87866;-71
2023/05/15 08:12:47;;;;;;;2.63;0.30;;;14.90;92.00;;;;;;6249640;22;87009;-70
2023/05/15 08:15:13;;;;;;;1.13;0.13;;;14.90;91.20;;;;;;6251137;22;87351;-71
2023/05/15 08:17:39;;;;;;;1.35;0.25;;;14.90;91.10;;;;;;6247374;22;88962;-72
2023/05/15 08:20:06;;;;;;;3.92;0.20;;;14.90;91.20;;;;;;6249640;22;89366;-71
2023/05/15 08:22:31;;;;;;;0.60;0.10;;;15.00;90.80;;;;;;6250321;22;87033;-71
2023/05/15 08:24:59;;;;;;;4.80;0.20;;;14.90;90.00;;;;;;6249562;22;87186;-71
2023/05/15 08:27:25;;;;;;;3.92;0.32;;;14.80;90.20;;;;;;6249728;22;88271;-71
2023/05/15 08:29:51;;;;;;;3.00;0.30;;;14.80;90.60;;;;;;6247891;22;87760;-75
2023/05/15 08:32:20;;;;;;;0.95;0.20;;;14.60;90.90;;;;;;6238351;22;88105;-72
2023/05/15 08:34:46;;;;;;;1.00;0.20;;;14.50;91.80;;;;;;6247450;22;86598;-70
2023/05/15 08:37:12;;;;;;;2.20;0.20;;;14.50;91.10;;;;;;6220467;22;88876;-73
2023/05/15 08:39:37;;;;;;;1.55;0.20;;;14.40;91.10;;;;;;6247357;22;87588;-72
2023/05/15 08:42:32;;;;;;;0.85;0.20;;;14.40;91.00;;;;;;6246199;22;89005;-72
2023/05/15 08:44:59;;;;;;;3.53;0.20;;;14.40;90.90;;;;;;6219804;22;87059;-72
2023/05/15 08:47:33;;;;;;;1.45;0.32;;;14.50;91.50;;;;;;6242345;22;88173;-71
2023/05/15 08:50:09;;;;;;;1.27;0.17;;;14.40;91.00;;;;;;6248028;22;88589;-71
2023/05/15 08:52:35;;;;;;;3.53;0.30;;;14.50;91.60;;;;;;6248960;22;87233;-71
2023/05/15 08:55:02;;;;;;;3.83;0.40;;;14.50;92.10;;;;;;6250122;22;87430;-72
2023/05/15 08:57:32;;;;;;;1.13;0.20;;;14.50;92.00;;;;;;6247290;22;88567;-70
2023/05/15 08:59:59;;;;;;;1.83;0.60;;;14.60;93.10;;;;;;6219720;22;90126;-73
2023/05/15 09:02:26;;;;;;;2.25;0.30;;;14.60;93.20;;;;;;6246832;22;87444;-68
2023/05/15 09:04:52;;;;;;;3.33;0.88;;;14.90;93.10;;;;;;6216796;22;87496;-71
2023/05/15 09:07:18;;;;;;;4.57;0.40;;;15.20;91.60;;;;;;6215230;22;90258;-71
2023/05/15 09:09:46;;;;;;;1.42;0.40;;;15.40;90.80;;;;;;6240973;22;88093;-72
2023/05/15 09:12:15;;;;;;;1.75;0.50;;;15.60;91.10;;;;;;6246163;22;87824;-69
2023/05/15 09:14:42;;;;;;;;;;;16.00;91.00;;;;;;6244413;22;87124;-73
2023/05/15 09:17:11;;;;;;;2.38;0.32;;;16.10;89.90;;;;;;6247283;22;89275;-71
2023/05/15 09:19:41;;;;;;;1.40;0.50;;;16.10;90.20;;;;;;6246384;22;87928;-71
2023/05/15 09:22:23;;;;;;;3.22;0.65;;;16.40;89.80;;;;;;6221162;22;87539;-71
2023/05/15 09:24:51;;;;;;;1.50;0.50;;;16.70;86.60;;;;;;6221357;22;86944;-72
2023/05/15 09:27:18;;;;;;;1.25;0.43;;;17.00;83.80;;;;;;6246587;22;87635;-72
2023/05/15 09:29:44;;;;;;;2.85;0.38;;;17.40;84.40;;;;;;6242955;22;87438;-72
2023/05/15 09:32:13;;;;;;;3.03;0.47;;;17.80;82.00;;;;;;6244603;22;88621;-71
2023/05/15 09:34:41;;;;;;;1.80;0.35;;;18.30;78.60;;;;;;6246197;22;87350;-68
2023/05/15 09:37:28;;;;;;;3.50;0.52;;;19.00;78.10;;;;;;6219412;22;92259;-69
2023/05/15 09:39:55;;;;;;;3.13;0.73;;;20.30;74.40;;;;;;6248853;22;88428;-69
2023/05/15 09:42:23;;;;;;;2.67;0.60;;;20.90;71.30;;;;;;6247017;22;87466;-73
2023/05/15 09:44:49;;;;;;;4.53;1.17;;;21.70;71.20;;;;;;6221246;22;87541;-69
2023/05/15 09:47:16;;;;;;;2.25;0.55;;;22.40;69.40;;;;;;6247163;22;88408;-71
2023/05/15 09:49:45;;;;;;;1.48;0.95;;;22.60;65.50;;;;;;6248515;22;88195;-72
2023/05/15 09:52:12;;;;;;;3.70;0.63;;;22.30;62.60;;;;;;6246828;22;87416;-71
2023/05/15 09:54:43;;;;;;;1.90;0.50;;;22.00;64.90;;;;;;6245416;22;87503;-72
2023/05/15 09:57:13;;;;;;;1.73;0.70;;;22.10;65.60;;;;;;6245042;22;89213;-72
2023/05/15 09:59:44;;;;;;;6.53;1.20;;;22.00;65.70;;;;;;6247335;22;88082;-73
2023/05/15 10:02:31;;;;;;;2.08;1.05;;;22.80;61.30;;;;;;6246123;22;87545;-72
2023/05/15 10:04:57;;;;;;;1.92;0.73;;;24.20;59.20;;;;;;6237763;22;88008;-73
2023/05/15 10:10:01;;;;;;;1.45;1.00;;;24.20;57.30;;;;;;6212408;22;88986;-85
2023/05/15 10:12:28;;;;;;;1.88;0.57;;;24.20;58.00;;;;;;6250220;22;87493;-84
2023/05/15 10:14:57;;;;;;;1.40;0.63;;;24.10;57.20;;;;;;6252925;22;86757;-85
2023/05/15 10:17:23;;;;;;;1.85;0.75;;;23.90;57.90;;;;;;6250990;22;88463;-84
2023/05/15 10:19:50;;;;;;;1.52;0.50;;;24.10;60.70;;;;;;6252665;22;87139;-85
2023/05/15 10:22:24;;;;;;;2.28;0.52;;;24.00;59.60;;;;;;6250974;22;89205;-85
2023/05/15 10:25:16;;;;;;;1.40;0.57;;;23.90;59.60;;;;;;6252453;22;88970;-85
2023/05/15 10:27:42;;;;;;;1.30;0.50;;;23.50;61.80;;;;;;6250930;22;88225;-85
2023/05/15 10:30:13;;;;;;;1.58;0.60;;;23.50;59.20;;;;;;6249932;22;88295;-85
2023/05/15 10:32:40;;;;;;;3.33;0.93;;;23.40;61.00;;;;;;6251986;22;87400;-83
2023/05/15 10:35:08;;;;;;;1.30;0.63;;;23.50;61.60;;;;;;6253452;22;87239;-86
2023/05/15 10:37:35;;;;;;;2.10;0.63;;;23.40;61.10;;;;;;6253388;22;90736;-83
2023/05/15 10:40:02;;;;;;;1.40;0.63;;;23.40;58.70;;;;;;6256527;22;87142;-85
2023/05/15 10:42:29;;;;;;;3.05;0.80;;;23.40;60.60;;;;;;6255963;22;87457;-84
2023/05/15 10:44:58;;;;;;;1.85;0.52;;;23.60;59.10;;;;;;6247377;22;87343;-83
2023/05/15 10:47:25;;;;;;;3.13;1.27;;;23.70;61.30;;;;;;6249926;22;89277;-83
2023/05/15 10:49:52;;;;;;;1.42;0.55;;;23.30;60.80;;;;;;6251659;22;87748;-87
2023/05/15 10:52:18;;;;;;;1.85;0.70;;;22.80;60.20;;;;;;6246657;22;87634;-80
2023/05/15 10:58:11;;;;;;;2.17;0.60;;;21.80;62.30;;;;;;2549750;22;102597;-77
2023/05/15 11:00:42;;;;;;;2.05;0.52;;;21.30;60.70;;;;;;6124886;23;88967;-81
2023/05/15 11:03:15;;;;;;;1.50;0.38;;;20.80;64.20;;;;;;6126042;23;87362;-78
2023/05/15 11:06:13;;;;;;;2.38;0.60;;;20.30;64.00;;;;;;6125804;23;86735;-77
2023/05/15 11:08:41;;;;;;;2.95;0.70;;;20.10;67.00;;;;;;6061456;22;87720;-79
2023/05/15 11:11:07;;;;;;;4.40;0.50;;;19.80;65.80;;;;;;6155920;22;87043;-79
2023/05/15 11:14:04;;;;;;;1.45;0.60;;;19.40;68.10;;;;;;6129971;22;88443;-80
2023/05/15 11:16:51;;;;;;;1.92;0.68;;;19.10;66.10;;;;;;6152793;22;87385;-77
2023/05/15 11:19:27;;;;;;;3.78;0.52;;;18.90;68.40;;;;;;6156881;22;87934;-77
2023/05/15 11:22:08;;;;;;;3.45;1.00;;;19.00;72.10;;;;;;6157400;22;88558;-80
2023/05/15 11:25:05;;;;;;;2.13;0.82;;;19.10;71.30;;;;;;6156282;22;87366;-80
2023/05/15 11:27:36;;;;;;;2.58;0.52;;;19.30;72.10;;;;;;6158391;22;87040;-81
2023/05/15 11:30:09;;;;;;;2.65;0.68;;;19.60;70.90;;;;;;6159216;22;88089;-78
2023/05/15 11:32:46;;;;;;;1.70;0.60;;;19.90;70.80;;;;;;6128418;22;88072;-80
2023/05/15 11:35:25;;;;;;;2.90;0.35;;;20.00;68.20;;;;;;6159776;22;87006;-81
2023/05/15 11:38:09;;;;;;;4.80;1.30;;;19.80;70.30;;;;;;6158834;22;87459;-81
2023/05/15 11:41:01;;;;;;;2.13;0.40;;;20.10;69.90;;;;;;6158463;22;88973;-81
2023/05/15 11:43:31;;;;;;;2.25;0.70;;;20.60;69.00;;;;;;6158816;22;88625;-81
2023/05/15 11:46:07;;;;;;;2.95;0.98;;;21.20;68.70;;;;;;6159697;22;87655;-82
2023/05/15 11:48:33;;;;;;;2.30;1.05;;;21.60;65.90;;;;;;6154747;22;87624;-82
2023/05/15 11:51:03;;;;;;;2.55;0.47;;;21.40;64.30;;;;;;6159042;22;88107;-82
2023/05/15 11:53:29;;;;;;;;;;;21.10;64.40;;;;;;6160526;22;87316;-82
2023/05/15 11:55:55;;;;;;;1.77;0.52;;;20.90;67.30;;;;;;6159515;22;87387;-82
2023/05/15 11:58:22;;;;;;;1.60;0.45;;;20.60;66.00;;;;;;6161787;22;86883;-81
2023/05/15 12:00:50;;;;;;;2.05;0.82;;;20.30;68.80;;;;;;6194537;22;87864;-81
2023/05/15 12:03:31;;;;;;;2.05;0.70;;;20.20;67.20;;;;;;6193411;22;87705;-78
2023/05/15 12:05:56;;;;;;;1.05;0.22;;;20.40;69.20;;;;;;6163686;22;88720;-78
2023/05/15 12:08:22;;;;;;;1.77;0.47;;;20.60;67.50;;;;;;6164339;22;87251;-81
2023/05/15 12:10:49;;;;;;;2.03;0.57;;;20.40;67.10;;;;;;6189153;22;88050;-82
2023/05/15 12:13:16;;;;;;;1.40;0.55;;;20.40;69.30;;;;;;6190767;22;87705;-83
2023/05/15 12:15:44;;;;;;;1.45;0.55;;;20.50;68.70;;;;;;6187788;22;87197;-82
2023/05/15 12:18:11;;;;;;;1.73;0.40;;;20.50;68.50;;;;;;6190587;22;87274;-81
2023/05/15 12:20:38;;;;;;;1.10;0.40;;;20.60;68.20;;;;;;6185648;22;88159;-83
2023/05/15 12:23:06;;;;;;;1.60;0.38;;;20.70;68.80;;;;;;6188726;22;88104;-81
2023/05/15 12:25:34;;;;;;;1.48;0.35;;;20.90;67.50;;;;;;6187594;22;86971;-82
2023/05/15 12:28:02;;;;;;;1.40;0.22;;;21.00;64.60;;;;;;6190036;22;86947;-83
2023/05/15 12:30:30;;;;;;;0.57;0.10;;;20.70;60.80;;;;;;6189048;22;87996;-82
2023/05/15 12:33:01;;;;;;;1.35;0.30;;;20.50;63.60;;;;;;6189433;22;88133;-80
2023/05/15 12:35:26;;;;;;;1.00;0.30;;;20.20;63.40;;;;;;6184903;22;87677;-81
2023/05/15 12:37:52;;;;;;;1.00;0.20;;;20.00;63.80;;;;;;6188543;22;87047;-81
2023/05/15 12:40:20;;;;;;;2.17;0.50;;;19.70;66.00;;;;;;6187874;22;88067;-82
2023/05/15 12:42:52;;;;;;;1.73;0.50;;;19.50;67.90;;;;;;6187607;22;87683;-81
2023/05/15 12:45:19;;;;;;;1.77;0.52;;;19.30;69.50;;;;;;6189993;22;87058;-82
2023/05/15 12:47:47;;;;;;;1.38;0.43;;;19.20;70.40;;;;;;6190197;22;86875;-82
2023/05/15 12:50:21;;;;;;;2.78;0.70;;;19.30;69.30;;;;;;6178968;22;88802;-81
2023/05/15 12:52:53;;;;;;;3.00;0.70;;;19.50;71.20;;;;;;6187424;22;87114;-82
2023/05/15 12:55:26;;;;;;;2.30;0.73;;;20.00;71.70;;;;;;6186971;22;88244;-79
2023/05/15 12:57:55;;;;;;;2.38;0.80;;;20.30;67.70;;;;;;6189765;22;87040;-80
2023/05/15 13:00:21;;;;;;;2.05;0.73;;;20.50;66.80;;;;;;6188135;22;88508;-81
2023/05/15 13:02:55;;;;;;;1.60;0.52;;;20.40;64.60;;;;;;6187488;22;87916;-81
2023/05/15 13:05:47;;;;;;;1.25;0.40;;;20.50;64.60;;;;;;6189567;22;87391;-83
2023/05/15 13:08:17;;;;;;;2.20;0.88;;;20.50;63.30;;;;;;6182564;22;87374;-82
2023/05/15 13:10:43;;;;;;;1.88;0.60;;;20.20;64.10;;;;;;6187957;22;87439;-82
2023/05/15 13:13:09;;;;;;;1.85;0.55;;;20.20;63.50;;;;;;6190230;22;87742;-81
2023/05/15 13:15:36;;;;;;;4.10;1.25;;;20.50;67.30;;;;;;6186014;22;87071;-82
2023/05/15 13:18:03;;;;;;;3.13;0.73;;;20.60;65.90;;;;;;6190324;22;87468;-81
2023/05/15 13:20:36;;;;;;;1.35;0.55;;;20.60;64.90;;;;;;6190045;22;88750;-82
2023/05/15 13:23:02;;;;;;;3.03;0.73;;;20.80;65.30;;;;;;6187392;22;88761;-82
2023/05/15 13:25:29;;;;;;;1.73;0.60;;;20.90;64.80;;;;;;6188264;22;87573;-82
2023/05/15 13:27:57;;;;;;;3.38;0.93;;;20.70;62.70;;;;;;6190398;22;87636;-83
2023/05/15 13:30:23;;;;;;;2.00;1.00;;;20.80;62.30;;;;;;6189126;22;87432;-82
2023/05/15 13:32:49;;;;;;;1.83;0.63;;;20.80;62.80;;;;;;6189927;22;87222;-82
2023/05/15 13:35:15;;;;;;;1.83;0.70;;;20.70;62.70;;;;;;6190284;22;87219;-82
2023/05/15 13:37:41;;;;;;;2.67;0.80;;;20.60;63.70;;;;;;6185349;22;86546;-83
2023/05/15 13:40:08;;;;;;;1.60;1.00;;;20.60;63.30;;;;;;6187413;22;88439;-83
2023/05/15 13:42:39;;;;;;;1.83;0.82;;;20.30;64.40;;;;;;6189128;22;88318;-81
2023/05/15 13:45:07;;;;;;;1.23;0.70;;;20.10;64.20;;;;;;6188294;22;88093;-84
2023/05/15 13:47:33;;;;;;;1.35;0.50;;;20.20;66.90;;;;;;6190096;22;87671;-83
2023/05/15 13:49:58;;;;;;;2.05;0.90;;;20.50;62.10;;;;;;6188968;22;87502;-83
2023/05/15 13:52:27;;;;;;;2.05;0.55;;;20.60;65.50;;;;;;6190803;22;86912;-84
2023/05/15 13:54:54;;;;;;;2.03;0.75;;;20.60;63.50;;;;;;6189173;22;87251;-84
2023/05/15 13:57:20;;;;;;;1.35;0.52;;;20.50;62.00;;;;;;6190662;22;87026;-84
2023/05/15 13:59:46;;;;;;;1.85;0.68;;;20.10;62.50;;;;;;6189860;22;88260;-83
2023/05/15 14:02:11;;;;;;;1.98;0.60;;;20.20;63.80;;;;;;6191242;22;87148;-84
2023/05/15 14:04:37;;;;;;;2.00;1.08;;;20.20;63.90;;;;;;6190807;22;87309;-80
2023/05/15 14:07:03;;;;;;;1.80;0.50;;;20.30;62.40;;;;;;6192031;22;87359;-84
2023/05/15 14:09:28;;;;;;;2.38;0.55;;;20.30;62.10;;;;;;6181798;22;89085;-83
2023/05/15 14:11:54;;;;;;;1.50;0.63;;;20.40;65.30;;;;;;6190250;22;88129;-82
2023/05/15 14:14:20;;;;;;;1.35;0.38;;;20.50;63.60;;;;;;6190819;22;86976;-82
2023/05/15 14:16:45;;;;;;;1.20;0.43;;;20.50;62.40;;;;;;6189308;22;87264;-83
2023/05/15 14:19:11;;;;;;;1.50;0.55;;;20.50;65.30;;;;;;6187383;22;88253;-84
2023/05/15 14:21:38;;;;;;;1.30;0.43;;;20.70;63.20;;;;;;6189277;22;87235;-82
2023/05/15 14:24:05;;;;;;;1.10;0.30;;;20.80;61.20;;;;;;6188032;22;88109;-84
2023/05/15 14:26:30;;;;;;;3.05;0.45;;;20.90;62.10;;;;;;6191254;22;88429;-80
2023/05/15 14:28:56;;;;;;;1.23;0.50;;;21.10;63.40;;;;;;6188311;22;88091;-84
2023/05/15 14:31:22;;;;;;;2.05;0.35;;;21.00;59.50;;;;;;6188422;22;89677;-82
2023/05/15 14:33:48;;;;;;;1.92;0.50;;;21.00;60.80;;;;;;6189276;22;88026;-84
2023/05/15 14:36:14;;;;;;;2.55;0.50;;;21.00;59.50;;;;;;6191196;22;87312;-84
2023/05/15 14:38:47;;;;;;;1.10;0.32;;;20.90;60.50;;;;;;6187242;22;88220;-84
2023/05/15 14:41:13;;;;;;;1.77;0.30;;;20.80;59.30;;;;;;6180117;22;87789;-82
2023/05/15 14:43:39;;;;;;;1.40;0.30;;;20.70;60.50;;;;;;6187642;22;87007;-81
2023/05/15 14:46:06;;;;;;;1.02;0.40;;;20.90;58.50;;;;;;6186288;22;87499;-84
2023/05/15 14:48:44;;;;;;;1.50;0.40;;;21.10;59.00;;;;;;6185604;22;89013;-82
2023/05/15 14:51:10;;;;;;;1.00;0.40;;;21.30;58.80;;;;;;6185580;22;87970;-82
2023/05/15 14:53:37;;;;;;;2.35;0.40;;;21.30;60.00;;;;;;6158052;22;87764;-83
2023/05/15 14:56:03;;;;;;;2.00;0.43;;;21.40;58.80;;;;;;6178147;22;87746;-84
2023/05/15 14:58:29;;;;;;;10.50;2.58;;;21.50;58.50;;;;;;6154624;22;92420;-82
2023/05/15 15:00:55;;;;;;;2.78;0.73;;;21.50;59.30;;;;;;6184868;22;87405;-83
2023/05/15 15:03:23;;;;;;;1.90;0.52;;;21.30;59.10;;;;;;6187509;22;87012;-81
2023/05/15 15:05:50;;;;;;;3.80;0.60;;;21.10;59.60;;;;;;6183403;22;87068;-84
2023/05/15 15:08:16;;;;;;;2.33;0.52;;;20.90;61.90;;;;;;6162618;22;89534;-84
2023/05/15 15:10:42;;;;;;;3.60;0.50;;;20.90;62.20;;;;;;6186064;22;88218;-78
2023/05/15 15:13:09;;;;;;;4.38;0.93;;;21.00;62.40;;;;;;6183783;22;86931;-82
2023/05/15 15:15:35;;;;;;;15.25;1.98;;;20.80;61.10;;;;;;6183703;22;86571;-81
2023/05/15 15:18:01;;;;;;;2.63;0.43;;;20.70;63.40;;;;;;6181772;22;88100;-83
2023/05/15 15:20:27;;;;;;;1.63;0.22;;;20.30;63.60;;;;;;6184121;22;87879;-82
2023/05/15 15:22:54;;;;;;;0.80;0.30;;;20.10;63.20;;;;;;6182474;22;88552;-82
2023/05/15 15:25:20;;;;;;;1.95;0.40;;;19.80;64.20;;;;;;6181383;22;87205;-82
2023/05/15 15:27:47;;;;;;;0.70;0.20;;;19.50;64.60;;;;;;6180834;22;88845;-82
2023/05/15 15:30:14;;;;;;;0.73;0.13;;;19.30;65.60;;;;;;6181014;22;87573;-79
2023/05/15 15:32:40;;;;;;;2.05;0.28;;;19.20;66.10;;;;;;6184843;22;87595;-82
2023/05/15 15:35:11;;;;;;;3.00;0.15;;;19.10;68.00;;;;;;6185074;22;87466;-82
2023/05/15 15:37:37;;;;;;;1.25;0.10;;;18.90;67.00;;;;;;6188390;22;88042;-80
2023/05/15 15:40:06;;;;;;;4.30;0.30;;;18.90;67.40;;;;;;6200940;22;86829;-81
2023/05/15 15:42:32;;;;;;;0.98;0.13;;;18.70;67.50;;;;;;6190615;22;87507;-84
2023/05/15 15:44:59;;;;;;;3.63;0.22;;;18.60;68.60;;;;;;6188252;22;87284;-83
2023/05/15 15:47:25;;;;;;;1.25;0.28;;;18.50;69.50;;;;;;6187878;22;88968;-82
2023/05/15 15:49:51;;;;;;;1.73;0.30;;;18.60;67.80;;;;;;6186253;22;88658;-84
2023/05/15 15:52:20;;;;;;;1.02;0.20;;;18.70;67.30;;;;;;6184419;22;87454;-82
2023/05/15 15:54:47;;;;;;;2.83;0.28;;;18.70;66.00;;;;;;6188216;22;87087;-80
2023/05/15 15:57:13;;;;;;;1.70;0.17;;;18.70;65.70;;;;;;6188668;22;88222;-79
2023/05/15 15:59:39;;;;;;;4.68;0.65;;;18.80;66.70;;;;;;6184666;22;88052;-82
2023/05/15 16:02:06;;;;;;;0.80;0.20;;;18.70;66.10;;;;;;6191512;22;87259;-78
2023/05/15 16:04:32;;;;;;;2.90;0.45;;;18.80;65.90;;;;;;6192374;22;86536;-80
2023/05/15 16:06:58;;;;;;;1.63;0.20;;;19.00;65.70;;;;;;6188822;22;88114;-80
2023/05/15 16:09:23;;;;;;;0.63;0.13;;;18.90;65.00;;;;;;6190363;22;87451;-80
2023/05/15 16:11:49;;;;;;;0.93;0.40;;;19.00;64.30;;;;;;6188863;22;88656;-80
2023/05/15 16:14:15;;;;;;;0.77;0.30;;;19.10;64.60;;;;;;6181446;22;87627;-79